Time;durP1;ratioP1;P1;durP2;ratioP2;P2;SDS_P1;SDS_P2;PMS_P1;PMS_P2;Temp;Humidity;BMP_temperature;BMP_pressure;BME280_temperature;BME280_humidity;BME280_pressure;Samples;Min_cycle;Max_cycle;Signal;HPM_P1;HPM_P2
2021/05/13 00:01:49;;;;;;;11.00;9.43;;;11.40;82.80;;;;;;5008533;28;20470;-48
2021/05/13 00:04:16;;;;;;;11.37;9.20;;;11.40;82.80;;;;;;5006885;28;20495;-48
2021/05/13 00:06:43;;;;;;;11.20;10.10;;;11.30;82.90;;;;;;5005159;28;20547;-48
2021/05/13 00:09:10;;;;;;;10.10;8.53;;;11.30;83.00;;;;;;5007224;28;20478;-48
2021/05/13 00:11:39;;;;;;;11.70;10.47;;;11.30;83.00;;;;;;5009514;28;20465;-47
2021/05/13 00:14:07;;;;;;;12.17;9.20;;;11.30;83.00;;;;;;5001762;28;20452;-48
2021/05/13 00:16:35;;;;;;;11.57;10.00;;;11.30;83.10;;;;;;5004325;28;20558;-48
2021/05/13 00:19:08;;;;;;;12.53;10.07;;;11.20;83.10;;;;;;5007531;28;20487;-47
2021/05/13 00:21:35;;;;;;;14.97;10.30;;;11.20;83.20;;;;;;5004734;28;20463;-48
2021/05/13 00:24:04;;;;;;;12.70;10.17;;;11.20;83.20;;;;;;5003300;28;20910;-46
2021/05/13 00:26:38;;;;;;;13.27;9.70;;;11.10;83.30;;;;;;5001787;28;20465;-47
2021/05/13 00:29:16;;;;;;;13.70;10.10;;;11.10;83.40;;;;;;5003369;28;20463;-48
2021/05/13 00:31:43;;;;;;;15.67;11.70;;;11.10;83.40;;;;;;5000041;28;20821;-47
2021/05/13 00:34:10;;;;;;;14.23;10.40;;;11.10;83.60;;;;;;5002395;28;20467;-47
2021/05/13 00:36:39;;;;;;;14.50;9.70;;;11.10;83.40;;;;;;5011133;28;20463;-47
2021/05/13 00:39:08;;;;;;;14.60;11.20;;;11.10;83.40;;;;;;5004201;28;20489;-47
2021/05/13 00:41:36;;;;;;;11.53;9.90;;;11.10;83.30;;;;;;5007146;28;20455;-48
2021/05/13 00:44:04;;;;;;;11.13;9.37;;;11.00;83.30;;;;;;5003617;28;20692;-47
2021/05/13 00:46:32;;;;;;;11.37;9.20;;;11.00;83.40;;;;;;5006170;28;20468;-47
2021/05/13 00:49:05;;;;;;;12.97;9.67;;;11.00;83.30;;;;;;5009524;28;20484;-48
2021/05/13 00:51:32;;;;;;;10.20;9.20;;;11.00;83.30;;;;;;5006080;28;20576;-48
2021/05/13 00:53:59;;;;;;;10.30;8.73;;;11.00;83.20;;;;;;5009340;28;20464;-47
2021/05/13 00:56:30;;;;;;;10.33;8.20;;;11.00;83.20;;;;;;5004269;28;20464;-47
2021/05/13 00:59:00;;;;;;;12.13;7.80;;;11.00;83.10;;;;;;5006643;28;20978;-47
2021/05/13 01:01:38;;;;;;;9.73;8.73;;;10.90;82.80;;;;;;5008512;28;20519;-47
2021/05/13 01:04:05;;;;;;;10.50;8.17;;;10.90;82.80;;;;;;5006506;28;20463;-47
2021/05/13 01:06:34;;;;;;;10.30;7.60;;;10.90;83.00;;;;;;5006505;28;20559;-47
2021/05/13 01:09:06;;;;;;;9.07;7.90;;;10.80;83.10;;;;;;5005866;28;20472;-47
2021/05/13 01:11:35;;;;;;;9.60;7.60;;;10.90;82.90;;;;;;5006615;28;21037;-47
2021/05/13 01:14:12;;;;;;;8.47;6.97;;;10.90;82.80;;;;;;4998835;28;20981;-47
2021/05/13 01:16:50;;;;;;;7.53;6.73;;;10.90;82.50;;;;;;5005885;28;20591;-47
2021/05/13 01:19:18;;;;;;;8.00;7.07;;;10.90;82.00;;;;;;5006186;28;20527;-47
2021/05/13 01:21:46;;;;;;;8.27;7.07;;;10.80;82.00;;;;;;5007033;28;20518;-47
2021/05/13 01:24:13;;;;;;;7.23;6.57;;;10.80;81.80;;;;;;5002105;28;21020;-47
2021/05/13 01:26:45;;;;;;;8.27;6.73;;;10.70;81.80;;;;;;5003882;28;20464;-47
2021/05/13 01:29:14;;;;;;;7.83;6.60;;;10.60;81.90;;;;;;5005471;28;20456;-47
2021/05/13 01:31:40;;;;;;;7.77;7.07;;;10.60;81.90;;;;;;5008959;28;20833;-47
2021/05/13 01:34:08;;;;;;;8.30;6.87;;;10.50;82.10;;;;;;5020854;28;20821;-47
2021/05/13 01:36:35;;;;;;;9.20;7.20;;;10.50;82.30;;;;;;5004041;28;20467;-47
2021/05/13 01:39:05;;;;;;;8.57;7.37;;;10.50;82.30;;;;;;5005253;28;20503;-47
2021/05/13 01:41:32;;;;;;;7.70;6.90;;;10.50;82.40;;;;;;5004428;28;20464;-47
2021/05/13 01:43:59;;;;;;;8.83;6.93;;;10.40;82.60;;;;;;5000944;28;20954;-47
2021/05/13 01:46:26;;;;;;;8.20;7.50;;;10.40;82.70;;;;;;5006623;28;20460;-47
2021/05/13 01:48:53;;;;;;;10.43;8.47;;;10.40;82.60;;;;;;5002921;28;20448;-47
2021/05/13 01:51:20;;;;;;;8.30;7.47;;;10.30;82.60;;;;;;5001531;28;20465;-48
2021/05/13 01:53:47;;;;;;;11.60;8.50;;;10.30;82.80;;;;;;5004822;28;20469;-47
2021/05/13 01:56:14;;;;;;;10.20;8.00;;;10.30;83.00;;;;;;5002853;28;20967;-47
2021/05/13 01:58:43;;;;;;;9.50;8.60;;;10.20;83.10;;;;;;5004423;28;21039;-47
2021/05/13 02:01:13;;;;;;;9.20;8.30;;;10.30;83.20;;;;;;5003446;28;20460;-47
2021/05/13 02:03:43;;;;;;;9.33;8.43;;;10.30;83.30;;;;;;5005618;28;20571;-47
2021/05/13 02:06:10;;;;;;;9.53;8.07;;;10.20;83.40;;;;;;5007275;28;20452;-47
2021/05/13 02:08:37;;;;;;;8.03;7.00;;;10.20;83.50;;;;;;5003308;28;20519;-47
2021/05/13 02:11:04;;;;;;;8.77;7.87;;;10.20;83.50;;;;;;5004867;28;20475;-47
2021/05/13 02:13:31;;;;;;;8.73;7.83;;;10.20;83.60;;;;;;5006362;28;20970;-47
2021/05/13 02:15:58;;;;;;;8.63;7.70;;;10.20;83.60;;;;;;4999255;28;20476;-48
2021/05/13 02:18:24;;;;;;;9.20;8.30;;;10.20;83.70;;;;;;5006003;28;20494;-48
2021/05/13 02:20:51;;;;;;;9.13;8.23;;;10.20;83.60;;;;;;5002494;28;20541;-47
2021/05/13 02:23:19;;;;;;;8.00;7.23;;;10.20;83.70;;;;;;5006262;28;20531;-47
2021/05/13 02:25:47;;;;;;;8.57;7.67;;;10.20;83.70;;;;;;5020618;28;20503;-47
2021/05/13 02:28:14;;;;;;;10.57;8.07;;;10.20;83.80;;;;;;5001850;28;20548;-47
2021/05/13 02:30:42;;;;;;;8.00;7.10;;;10.20;83.90;;;;;;5005166;28;20503;-47
2021/05/13 02:33:09;;;;;;;10.53;8.70;;;10.20;83.70;;;;;;5002168;28;20456;-47
2021/05/13 02:35:36;;;;;;;8.63;7.83;;;10.20;83.80;;;;;;5006005;28;20453;-47
2021/05/13 02:38:03;;;;;;;9.80;8.80;;;10.20;83.90;;;;;;5004294;28;20551;-47
2021/05/13 02:40:34;;;;;;;10.20;8.83;;;10.20;83.90;;;;;;5003846;28;20501;-47
2021/05/13 02:43:03;;;;;;;9.17;8.00;;;10.20;84.00;;;;;;5030562;28;20464;-51
2021/05/13 02:45:30;;;;;;;11.10;10.00;;;10.20;84.00;;;;;;5002231;28;20861;-51
2021/05/13 02:47:58;;;;;;;9.87;8.83;;;10.20;84.00;;;;;;5006140;28;20462;-51
2021/05/13 02:50:26;;;;;;;11.60;8.90;;;10.20;84.00;;;;;;5005472;28;20907;-51
2021/05/13 02:52:53;;;;;;;13.87;8.17;;;10.20;83.90;;;;;;5002854;28;20503;-51
2021/05/13 02:55:19;;;;;;;10.93;9.30;;;10.10;84.10;;;;;;5009353;28;20456;-51
2021/05/13 02:57:47;;;;;;;11.00;8.87;;;10.20;84.10;;;;;;5009068;28;20459;-51
2021/05/13 03:00:29;;;;;;;9.67;8.60;;;10.20;84.10;;;;;;5008802;28;20560;-47
2021/05/13 03:02:56;;;;;;;13.07;8.67;;;10.30;83.90;;;;;;5008945;28;20468;-47
2021/05/13 03:05:26;;;;;;;12.47;9.17;;;10.30;83.80;;;;;;5005384;28;21032;-48
2021/05/13 03:08:03;;;;;;;10.23;9.13;;;10.30;83.70;;;;;;5011259;28;20909;-48
2021/05/13 03:11:03;;;;;;;11.90;10.70;;;10.30;83.70;;;;;;5008397;28;20486;-48
2021/05/13 03:13:24;;;;;;;13.90;12.40;;;10.20;83.70;;;;;;5005832;28;20470;-47
2021/05/13 03:15:52;;;;;;;13.17;11.70;;;10.20;83.90;;;;;;5006631;28;20501;-48
2021/05/13 03:18:22;;;;;;;13.53;11.87;;;10.20;83.80;;;;;;5010240;28;20447;-47
2021/05/13 03:20:54;;;;;;;13.97;12.20;;;10.10;83.70;;;;;;5009509;28;20484;-47
2021/05/13 03:23:27;;;;;;;14.37;11.50;;;10.10;83.70;;;;;;5010067;28;20488;-47
2021/05/13 03:26:01;;;;;;;15.07;12.50;;;10.10;83.80;;;;;;5007369;28;20983;-47
2021/05/13 03:28:28;;;;;;;13.13;11.07;;;10.00;83.80;;;;;;5005489;28;20702;-47
2021/05/13 03:30:55;;;;;;;13.03;11.03;;;10.00;83.70;;;;;;5012055;28;21004;-47
2021/05/13 03:33:21;;;;;;;12.83;11.47;;;10.00;83.70;;;;;;5004644;28;20464;-47
2021/05/13 03:35:48;;;;;;;13.97;10.03;;;10.00;83.80;;;;;;5005588;28;20460;-47
2021/05/13 03:38:17;;;;;;;13.40;11.10;;;9.90;83.80;;;;;;5005818;28;20482;-47
2021/05/13 03:40:44;;;;;;;15.20;10.83;;;9.90;83.80;;;;;;5005365;28;20580;-47
2021/05/13 03:43:11;;;;;;;12.30;11.00;;;9.90;83.90;;;;;;5008092;28;20491;-47
2021/05/13 03:45:38;;;;;;;14.63;10.97;;;9.90;84.00;;;;;;5003708;28;20457;-47
2021/05/13 03:48:06;;;;;;;15.80;11.43;;;9.80;84.00;;;;;;5005181;28;20487;-47
2021/05/13 03:50:34;;;;;;;13.43;11.03;;;9.90;84.10;;;;;;5007278;28;20459;-47
2021/05/13 03:53:03;;;;;;;17.57;12.10;;;9.80;84.20;;;;;;5003100;28;20474;-47
2021/05/13 03:55:30;;;;;;;17.00;12.60;;;9.80;84.20;;;;;;5004878;28;20460;-47
2021/05/13 03:57:58;;;;;;;13.43;11.13;;;9.80;84.20;;;;;;5007898;28;20456;-47
2021/05/13 04:01:00;;;;;;;11.80;10.27;;;9.80;84.20;;;;;;5005307;28;20484;-47
2021/05/13 04:03:15;;;;;;;11.60;10.37;;;9.80;84.20;;;;;;5005712;28;21063;-47
2021/05/13 04:05:42;;;;;;;10.60;9.50;;;9.80;84.20;;;;;;5005324;28;20484;-47
2021/05/13 04:08:09;;;;;;;12.40;9.53;;;9.90;84.00;;;;;;5005854;28;20452;-47
2021/05/13 04:10:36;;;;;;;12.80;11.27;;;9.90;83.70;;;;;;5002996;28;20456;-48
2021/05/13 04:13:08;;;;;;;16.23;11.20;;;9.90;83.70;;;;;;5006734;28;20470;-47
2021/05/13 04:15:52;;;;;;;13.00;11.50;;;9.90;83.70;;;;;;5005697;28;20477;-48
2021/05/13 04:18:21;;;;;;;13.67;11.40;;;9.80;83.80;;;;;;5005487;28;20470;-47
2021/05/13 04:20:48;;;;;;;13.17;11.77;;;9.80;83.90;;;;;;5003413;28;20488;-47
2021/05/13 04:23:16;;;;;;;19.23;11.47;;;9.80;84.00;;;;;;5001650;28;20959;-47
2021/05/13 04:25:42;;;;;;;14.87;11.80;;;9.80;84.10;;;;;;5005310;28;20457;-47
2021/05/13 04:28:09;;;;;;;18.00;11.73;;;9.80;84.10;;;;;;5006164;28;20762;-47
2021/05/13 04:30:36;;;;;;;13.00;11.60;;;9.80;84.20;;;;;;5003084;28;20492;-47
2021/05/13 04:33:02;;;;;;;13.40;11.67;;;9.80;84.40;;;;;;5006523;28;20464;-48
2021/05/13 04:35:30;;;;;;;15.63;13.70;;;9.80;84.50;;;;;;5005867;28;20555;-48
2021/05/13 04:37:56;;;;;;;15.80;12.10;;;9.80;84.60;;;;;;5003323;28;20985;-47
2021/05/13 04:40:23;;;;;;;15.23;13.60;;;9.80;84.70;;;;;;5003601;28;20500;-47
2021/05/13 04:42:50;;;;;;;16.87;12.93;;;9.90;84.70;;;;;;5002076;28;20461;-47
2021/05/13 04:45:17;;;;;;;17.30;13.20;;;9.90;84.80;;;;;;5004662;28;20456;-47
2021/05/13 04:50:12;;;;;;;14.80;12.47;;;10.00;85.10;;;;;;5002860;28;20464;-47
2021/05/13 04:52:40;;;;;;;18.27;14.20;;;10.00;85.10;;;;;;5003359;28;20460;-47
2021/05/13 04:55:07;;;;;;;16.57;13.40;;;10.10;85.40;;;;;;5003974;28;20482;-47
2021/05/13 04:57:37;;;;;;;18.03;14.27;;;10.20;85.30;;;;;;5003323;28;20463;-47
2021/05/13 05:00:11;;;;;;;19.87;15.97;;;10.30;85.20;;;;;;5002965;28;20503;-48
2021/05/13 05:02:37;;;;;;;21.70;15.80;;;10.30;85.20;;;;;;5007347;28;20506;-47
2021/05/13 05:05:08;;;;;;;18.17;14.80;;;10.30;85.20;;;;;;5036674;28;21045;-47
2021/05/13 05:07:35;;;;;;;24.73;17.60;;;10.40;85.20;;;;;;5011260;28;20448;-47
2021/05/13 05:10:02;;;;;;;20.47;15.90;;;10.30;85.30;;;;;;5007611;28;21124;-47
2021/05/13 05:12:28;;;;;;;24.23;18.63;;;10.40;85.40;;;;;;5008449;28;20449;-48
2021/05/13 05:14:57;;;;;;;24.23;17.30;;;10.40;85.60;;;;;;5007643;28;20462;-48
2021/05/13 05:17:24;;;;;;;22.70;17.70;;;10.40;85.70;;;;;;5004444;28;20899;-47
2021/05/13 05:19:51;;;;;;;21.07;17.63;;;10.50;85.70;;;;;;4996852;28;20519;-48
2021/05/13 05:22:18;;;;;;;23.40;18.20;;;10.60;85.80;;;;;;5006349;28;20861;-47
2021/05/13 05:24:44;;;;;;;20.17;17.23;;;10.60;85.80;;;;;;5003040;28;20460;-47
2021/05/13 05:27:11;;;;;;;23.50;17.47;;;10.70;85.70;;;;;;5004279;28;20458;-47
2021/05/13 05:29:38;;;;;;;24.17;17.70;;;10.80;85.50;;;;;;5017166;28;20460;-48
2021/05/13 05:32:05;;;;;;;24.93;19.40;;;10.90;85.30;;;;;;5014356;28;20803;-47
2021/05/13 05:34:32;;;;;;;24.13;18.77;;;11.00;84.90;;;;;;5008554;28;20474;-48
2021/05/13 05:37:01;;;;;;;23.63;17.63;;;11.00;84.90;;;;;;5006935;28;20465;-47
2021/05/13 05:39:30;;;;;;;26.10;18.83;;;11.00;85.00;;;;;;5004716;28;20460;-47
2021/05/13 05:41:57;;;;;;;25.27;20.13;;;11.00;85.20;;;;;;5016744;28;20807;-47
2021/05/13 05:44:24;;;;;;;27.80;19.67;;;11.10;85.30;;;;;;5005735;28;20461;-47
2021/05/13 05:46:53;;;;;;;25.47;20.10;;;11.20;84.80;;;;;;5005423;28;20832;-48
2021/05/13 05:49:21;;;;;;;24.23;18.17;;;11.20;84.70;;;;;;5006591;28;20507;-47
2021/05/13 05:51:48;;;;;;;27.63;20.80;;;11.30;84.40;;;;;;5004807;28;20468;-47
2021/05/13 05:54:14;;;;;;;27.93;20.20;;;11.30;84.40;;;;;;5004774;28;20551;-47
2021/05/13 05:56:44;;;;;;;24.37;19.87;;;11.30;84.80;;;;;;5003794;28;20672;-47
2021/05/13 05:59:11;;;;;;;25.40;20.20;;;11.40;84.50;;;;;;5007749;28;20536;-48
2021/05/13 06:01:38;;;;;;;23.40;19.37;;;11.40;84.40;;;;;;5007490;28;20642;-47
2021/05/13 06:04:08;;;;;;;23.83;20.00;;;11.50;84.30;;;;;;4998281;28;21287;-47
2021/05/13 06:06:36;;;;;;;29.03;19.97;;;11.50;84.70;;;;;;5001887;28;20475;-47
2021/05/13 06:09:04;;;;;;;26.17;20.60;;;11.50;84.90;;;;;;5007507;28;21198;-47
2021/05/13 06:11:31;;;;;;;27.57;21.03;;;11.60;84.50;;;;;;5007180;28;20527;-47
2021/05/13 06:13:58;;;;;;;28.83;20.40;;;11.70;84.50;;;;;;5005762;28;20464;-47
2021/05/13 06:16:24;;;;;;;24.13;19.47;;;11.80;84.50;;;;;;5002500;28;20478;-47
2021/05/13 06:18:53;;;;;;;25.40;19.37;;;11.90;84.30;;;;;;5006694;28;20821;-47
2021/05/13 06:21:21;;;;;;;24.27;19.67;;;12.00;84.10;;;;;;5008062;28;20480;-47
2021/05/13 06:23:53;;;;;;;26.10;19.50;;;12.10;83.80;;;;;;5006858;28;20479;-48
2021/05/13 06:26:31;;;;;;;27.40;19.87;;;12.30;83.40;;;;;;5019771;28;20524;-48
2021/05/13 06:29:08;;;;;;;23.23;20.00;;;12.40;82.80;;;;;;5006305;28;20475;-48
2021/05/13 06:31:35;;;;;;;26.70;19.87;;;12.50;82.20;;;;;;5015404;28;20892;-47
2021/05/13 06:34:03;;;;;;;25.50;19.60;;;12.50;81.90;;;;;;5013504;28;20456;-47
2021/05/13 06:36:30;;;;;;;23.60;18.03;;;12.60;82.00;;;;;;5029123;28;20456;-48
2021/05/13 06:38:57;;;;;;;26.80;20.50;;;12.70;82.10;;;;;;5015912;28;20459;-47
2021/05/13 06:41:24;;;;;;;28.23;19.90;;;12.70;81.80;;;;;;5015531;28;20483;-48
2021/05/13 06:43:50;;;;;;;23.63;18.83;;;12.80;82.10;;;;;;5014033;28;20976;-48
2021/05/13 06:46:17;;;;;;;23.53;19.67;;;12.90;82.10;;;;;;5012768;28;20460;-47
2021/05/13 06:48:49;;;;;;;24.83;18.70;;;13.10;82.00;;;;;;5013008;28;20484;-47
2021/05/13 06:51:16;;;;;;;25.27;18.47;;;13.20;81.30;;;;;;5007742;28;20470;-47
2021/05/13 06:53:43;;;;;;;20.73;18.00;;;13.30;81.00;;;;;;5008412;28;20887;-47
2021/05/13 06:56:09;;;;;;;19.80;17.70;;;13.50;80.70;;;;;;5009631;28;20544;-47
2021/05/13 06:58:36;;;;;;;23.57;19.37;;;13.70;80.20;;;;;;5012627;28;20456;-47
2021/05/13 07:01:03;;;;;;;23.53;17.67;;;13.80;80.20;;;;;;5013508;28;21036;-48
2021/05/13 07:03:30;;;;;;;22.07;17.93;;;13.90;79.90;;;;;;5009990;28;20496;-48
2021/05/13 07:05:57;;;;;;;21.97;16.90;;;14.10;79.50;;;;;;5013154;28;20502;-48
2021/05/13 07:08:24;;;;;;;20.43;16.83;;;14.30;79.20;;;;;;5028487;28;20532;-48
2021/05/13 07:10:51;;;;;;;24.37;19.40;;;14.40;78.70;;;;;;5007921;28;20494;-48
2021/05/13 07:13:18;;;;;;;24.50;17.83;;;14.60;78.20;;;;;;5009849;28;20547;-48
2021/05/13 07:15:45;;;;;;;25.50;19.47;;;14.80;77.50;;;;;;5004390;28;20484;-48
2021/05/13 07:18:15;;;;;;;20.27;17.47;;;15.00;77.00;;;;;;5005832;28;20475;-48
2021/05/13 07:20:43;;;;;;;22.33;18.43;;;15.10;76.40;;;;;;5011273;28;20494;-48
2021/05/13 07:23:10;;;;;;;24.40;18.03;;;15.20;76.10;;;;;;5010144;28;20463;-48
2021/05/13 07:25:38;;;;;;;24.43;18.47;;;15.40;75.80;;;;;;5025399;28;20460;-48
2021/05/13 07:28:04;;;;;;;28.13;19.10;;;15.60;75.50;;;;;;5007156;28;20487;-48
2021/05/13 07:30:32;;;;;;;24.17;18.47;;;15.70;74.80;;;;;;5012568;28;20510;-48
2021/05/13 07:32:58;;;;;;;24.90;18.57;;;15.80;74.20;;;;;;5011768;28;20508;-48
2021/05/13 07:35:29;;;;;;;22.20;19.03;;;15.90;74.10;;;;;;5012150;28;20495;-48
2021/05/13 07:37:56;;;;;;;26.03;20.13;;;16.00;74.30;;;;;;5013659;28;20496;-48
2021/05/13 07:40:27;;;;;;;29.13;20.77;;;16.10;74.10;;;;;;5009390;28;20801;-48
2021/05/13 07:42:55;;;;;;;23.20;18.43;;;16.30;73.30;;;;;;5009081;28;20611;-48
2021/05/13 07:45:24;;;;;;;24.03;19.47;;;16.40;72.90;;;;;;5008668;28;20500;-48
2021/05/13 07:47:51;;;;;;;25.77;19.50;;;16.60;72.20;;;;;;5004321;28;20912;-48
2021/05/13 07:50:20;;;;;;;23.50;17.80;;;16.70;71.90;;;;;;5007681;28;20482;-48
2021/05/13 07:52:48;;;;;;;22.43;19.97;;;16.80;71.40;;;;;;5007797;28;20473;-48
2021/05/13 07:55:16;;;;;;;23.40;18.43;;;17.00;70.80;;;;;;5001974;28;20470;-47
2021/05/13 07:57:44;;;;;;;26.43;19.80;;;17.10;69.80;;;;;;4998473;28;20471;-50
2021/05/13 08:00:12;;;;;;;23.40;18.60;;;17.20;69.50;;;;;;5005325;28;20491;-49
2021/05/13 08:02:38;;;;;;;26.87;18.77;;;17.40;69.10;;;;;;5005895;28;20461;-49
2021/05/13 08:05:06;;;;;;;26.23;19.13;;;17.50;69.00;;;;;;4998379;28;21056;-48
2021/05/13 08:07:33;;;;;;;20.33;18.23;;;17.70;68.60;;;;;;5010342;28;20459;-49
2021/05/13 08:09:59;;;;;;;21.43;17.90;;;17.90;67.60;;;;;;5008362;28;20441;-49
2021/05/13 08:12:26;;;;;;;21.07;17.63;;;18.00;67.30;;;;;;5010192;28;20547;-50
2021/05/13 08:14:53;;;;;;;21.77;17.70;;;18.10;67.10;;;;;;5009539;28;20464;-49
2021/05/13 08:17:20;;;;;;;25.60;17.50;;;18.30;67.10;;;;;;5006133;28;21001;-49
2021/05/13 08:19:49;;;;;;;23.93;18.60;;;18.50;66.10;;;;;;5010321;28;20938;-49
2021/05/13 08:22:16;;;;;;;21.43;19.13;;;18.60;65.40;;;;;;5010380;28;20480;-49
2021/05/13 08:24:43;;;;;;;22.30;16.63;;;18.60;65.40;;;;;;5007295;28;20966;-49
2021/05/13 08:27:10;;;;;;;20.10;16.47;;;18.70;64.20;;;;;;5010851;28;20458;-49
2021/05/13 08:29:36;;;;;;;19.43;16.40;;;18.80;64.50;;;;;;5010996;28;20449;-49
2021/05/13 08:32:05;;;;;;;21.93;15.70;;;18.80;64.70;;;;;;5010481;28;20950;-49
2021/05/13 08:34:33;;;;;;;18.27;15.20;;;18.90;64.50;;;;;;5009493;28;20536;-48
2021/05/13 08:36:59;;;;;;;17.77;15.00;;;19.00;64.10;;;;;;5009948;28;20461;-49
2021/05/13 08:39:30;;;;;;;20.50;15.20;;;19.10;64.00;;;;;;5009477;28;20448;-48
2021/05/13 08:42:00;;;;;;;16.53;14.60;;;19.20;63.00;;;;;;5010414;28;20499;-48
2021/05/13 08:44:28;;;;;;;15.97;13.17;;;19.30;62.60;;;;;;5007766;28;20476;-48
2021/05/13 08:46:59;;;;;;;15.03;13.53;;;19.40;62.00;;;;;;5008543;28;20467;-49
2021/05/13 08:49:28;;;;;;;18.47;14.30;;;19.50;61.30;;;;;;5009434;28;20490;-50
2021/05/13 08:51:55;;;;;;;18.00;13.50;;;19.50;61.50;;;;;;5006742;28;20869;-49
2021/05/13 08:54:23;;;;;;;18.23;13.40;;;19.50;61.50;;;;;;5005821;28;20482;-49
2021/05/13 08:56:51;;;;;;;21.30;13.63;;;19.60;61.30;;;;;;5007803;28;20456;-48
2021/05/13 08:59:19;;;;;;;17.77;14.00;;;19.80;61.30;;;;;;5008834;28;20444;-48
2021/05/13 09:01:56;;;;;;;16.80;13.80;;;19.90;60.20;;;;;;5011555;28;20582;-48
2021/05/13 09:04:23;;;;;;;15.80;14.03;;;20.10;60.40;;;;;;5022471;28;21024;-48
2021/05/13 09:06:54;;;;;;;18.80;14.70;;;20.40;60.10;;;;;;5007909;28;20453;-48
2021/05/13 09:09:22;;;;;;;18.57;16.10;;;20.50;59.30;;;;;;5009320;28;20454;-48
2021/05/13 09:11:55;;;;;;;16.40;14.23;;;20.90;59.20;;;;;;5007415;28;20455;-48
2021/05/13 09:14:28;;;;;;;19.57;14.20;;;21.20;58.50;;;;;;5024185;28;20441;-48
2021/05/13 09:16:56;;;;;;;17.37;13.70;;;21.60;57.60;;;;;;5008048;28;20483;-48
2021/05/13 09:19:26;;;;;;;14.50;11.93;;;21.90;56.40;;;;;;5008701;28;20444;-48
2021/05/13 09:22:02;;;;;;;14.90;11.20;;;22.30;55.50;;;;;;5007087;28;20583;-48
2021/05/13 09:24:42;;;;;;;17.90;11.97;;;22.60;54.30;;;;;;5024233;28;20460;-48
2021/05/13 09:27:19;;;;;;;11.60;10.37;;;22.90;52.70;;;;;;5009257;28;20447;-48
2021/05/13 09:29:58;;;;;;;11.97;10.30;;;23.20;52.60;;;;;;5008024;28;20558;-48
2021/05/13 09:32:25;;;;;;;11.37;10.17;;;23.60;51.60;;;;;;5007717;28;20496;-48
2021/05/13 09:34:52;;;;;;;11.33;8.77;;;24.10;50.60;;;;;;5010610;28;20454;-48
2021/05/13 09:37:18;;;;;;;9.40;7.33;;;24.50;49.00;;;;;;5008996;28;20546;-48
2021/05/13 09:39:48;;;;;;;8.30;5.20;;;24.80;47.40;;;;;;5008942;28;20462;-48
2021/05/13 09:42:19;;;;;;;9.03;5.63;;;25.10;43.40;;;;;;5023007;28;20480;-48
2021/05/13 09:44:48;;;;;;;9.27;5.77;;;25.20;43.90;;;;;;5004991;28;20472;-49
2021/05/13 09:47:29;;;;;;;14.27;6.70;;;25.30;43.80;;;;;;5003709;28;20547;-48
2021/05/13 09:50:04;;;;;;;5.27;3.00;;;25.60;43.70;;;;;;5005797;28;20550;-47
2021/05/13 09:52:48;;;;;;;3.83;2.37;;;25.90;43.20;;;;;;5007747;28;20542;-47
2021/05/13 09:55:18;;;;;;;5.90;2.53;;;26.10;40.30;;;;;;5005573;28;20999;-47
2021/05/13 09:58:06;;;;;;;4.97;2.87;;;26.30;38.90;;;;;;5007742;28;20451;-47
2021/05/13 10:00:48;;;;;;;8.87;3.60;;;26.30;39.70;;;;;;5007351;28;20483;-47
2021/05/13 10:03:20;;;;;;;6.50;3.70;;;26.30;40.00;;;;;;5005225;28;20552;-47
2021/05/13 10:05:53;;;;;;;5.50;3.20;;;26.30;40.70;;;;;;5008928;28;20487;-48
2021/05/13 10:08:21;;;;;;;5.10;2.50;;;26.20;40.00;;;;;;5009107;28;20549;-47
2021/05/13 10:10:48;;;;;;;3.20;2.00;;;25.90;40.20;;;;;;5006497;28;20838;-48
2021/05/13 10:13:19;;;;;;;4.37;2.43;;;25.70;40.60;;;;;;5006943;28;20499;-47
2021/05/13 10:15:50;;;;;;;6.33;2.90;;;25.50;40.90;;;;;;5008113;28;20475;-47
2021/05/13 10:18:25;;;;;;;5.97;2.77;;;25.20;41.60;;;;;;5008210;28;20451;-47
2021/05/13 10:21:05;;;;;;;7.93;4.00;;;25.00;41.70;;;;;;5018122;28;20522;-47
2021/05/13 10:23:36;;;;;;;6.67;2.73;;;24.70;42.80;;;;;;5019703;28;20460;-47
2021/05/13 10:26:03;;;;;;;4.23;3.40;;;24.50;43.40;;;;;;5009538;28;20454;-47
2021/05/13 10:28:32;;;;;;;4.70;3.20;;;24.20;43.70;;;;;;5007427;28;20539;-48
2021/05/13 10:31:06;;;;;;;5.20;2.47;;;23.90;44.60;;;;;;5005744;28;20488;-47
2021/05/13 10:33:48;;;;;;;5.83;3.83;;;23.70;44.70;;;;;;4999300;28;20491;-48
2021/05/13 10:36:21;;;;;;;6.33;4.00;;;23.60;44.70;;;;;;5020064;28;20483;-48
2021/05/13 10:39:04;;;;;;;7.70;3.77;;;23.40;44.50;;;;;;5023894;28;20492;-48
2021/05/13 10:41:36;;;;;;;54.27;40.97;;;23.20;44.40;;;;;;5008630;28;20483;-49
2021/05/13 10:44:12;;;;;;;90.60;58.97;;;23.00;46.20;;;;;;5008591;28;20468;-49
2021/05/13 10:46:51;;;;;;;31.00;21.80;;;22.90;46.60;;;;;;5008104;28;20462;-48
2021/05/13 10:49:23;;;;;;;51.73;44.83;;;22.70;46.50;;;;;;5008658;28;20468;-48
2021/05/13 10:51:55;;;;;;;20.30;18.13;;;22.70;46.00;;;;;;5007055;28;20491;-48
2021/05/13 10:54:28;;;;;;;5.80;3.30;;;22.70;45.10;;;;;;5006473;28;20452;-49
2021/05/13 10:57:19;;;;;;;28.67;20.67;;;22.60;44.10;;;;;;5002911;28;20481;-48
2021/05/13 11:00:05;;;;;;;9.83;8.10;;;22.20;45.20;;;;;;5003594;28;20476;-48
2021/05/13 11:02:44;;;;;;;7.67;2.93;;;21.90;46.50;;;;;;5003873;28;20868;-48
2021/05/13 11:05:29;;;;;;;4.60;2.20;;;21.80;46.20;;;;;;5004530;28;20471;-48
2021/05/13 11:08:07;;;;;;;1.93;1.47;;;21.70;46.00;;;;;;5003227;28;20460;-48
2021/05/13 11:11:03;;;;;;;2.00;1.80;;;21.60;46.30;;;;;;5006623;28;20916;-48
2021/05/13 11:13:44;;;;;;;4.87;1.50;;;21.40;45.60;;;;;;5006454;28;20555;-48
2021/05/13 11:16:38;;;;;;;4.03;1.60;;;21.40;45.00;;;;;;5005178;28;20558;-48
2021/05/13 11:19:26;;;;;;;1.63;1.27;;;21.30;45.60;;;;;;5004861;28;20548;-48
2021/05/13 11:22:06;;;;;;;6.57;1.30;;;21.10;46.70;;;;;;5008585;28;20555;-48
2021/05/13 11:24:35;;;;;;;2.50;1.70;;;21.00;46.90;;;;;;5007413;28;20459;-48
2021/05/13 11:27:03;;;;;;;3.07;1.67;;;20.90;47.60;;;;;;5004876;28;20469;-48
2021/05/13 11:29:50;;;;;;;9.00;2.20;;;20.80;47.60;;;;;;5007657;28;20479;-48
2021/05/13 11:32:18;;;;;;;3.83;1.90;;;20.80;47.10;;;;;;5006837;28;20464;-48
2021/05/13 11:34:46;;;;;;;5.20;1.67;;;20.70;47.00;;;;;;5006824;28;20462;-48
2021/05/13 11:37:32;;;;;;;2.43;1.40;;;20.70;46.80;;;;;;5007308;28;20466;-48
2021/05/13 11:40:29;;;;;;;4.77;1.43;;;20.60;46.10;;;;;;5009254;28;20466;-48
2021/05/13 11:43:14;;;;;;;5.37;1.33;;;20.60;47.00;;;;;;5007072;28;20520;-48
2021/05/13 11:45:42;;;;;;;5.97;1.40;;;20.70;46.40;;;;;;5024986;28;20451;-48
2021/05/13 11:48:18;;;;;;;1.90;1.37;;;20.80;46.00;;;;;;5009391;28;20457;-48
2021/05/13 11:50:45;;;;;;;6.00;1.37;;;20.90;45.40;;;;;;5006812;28;20848;-48
2021/05/13 11:53:14;;;;;;;1.43;0.67;;;21.00;44.20;;;;;;5009423;28;20452;-48
2021/05/13 11:55:42;;;;;;;2.20;1.10;;;21.00;45.10;;;;;;5007521;28;20444;-48
2021/05/13 11:58:14;;;;;;;3.03;1.10;;;21.00;44.50;;;;;;5009100;28;20531;-48
2021/05/13 12:00:42;;;;;;;2.80;1.00;;;21.00;42.90;;;;;;5007875;28;20466;-48
2021/05/13 12:03:10;;;;;;;2.17;1.43;;;21.00;42.20;;;;;;5010317;28;20500;-48
2021/05/13 12:05:54;;;;;;;5.67;1.13;;;21.10;40.60;;;;;;5006652;28;20975;-48
2021/05/13 12:08:23;;;;;;;2.50;1.07;;;21.20;41.50;;;;;;5005442;28;20521;-48
2021/05/13 12:10:51;;;;;;;2.30;1.00;;;21.20;40.10;;;;;;5005789;28;21069;-48
2021/05/13 12:13:18;;;;;;;2.07;0.80;;;21.20;40.40;;;;;;5008254;28;20488;-48
2021/05/13 12:15:45;;;;;;;2.07;0.80;;;21.20;41.60;;;;;;5006931;28;20488;-48
2021/05/13 12:18:14;;;;;;;2.33;1.20;;;21.20;41.10;;;;;;5006644;28;20464;-48
2021/05/13 12:20:44;;;;;;;3.50;1.20;;;21.20;41.30;;;;;;5008500;28;20459;-48
2021/05/13 12:23:13;;;;;;;4.00;1.53;;;21.20;41.50;;;;;;5006239;28;21067;-48
2021/05/13 12:25:41;;;;;;;6.10;2.60;;;21.20;42.80;;;;;;5008228;28;20449;-48
2021/05/13 12:28:07;;;;;;;5.40;2.43;;;21.20;42.50;;;;;;5006398;28;20459;-49
2021/05/13 12:30:34;;;;;;;4.50;1.40;;;21.10;42.90;;;;;;5004696;28;20555;-49
2021/05/13 12:33:24;;;;;;;3.43;1.10;;;21.10;42.60;;;;;;5004023;28;20534;-49
2021/05/13 12:35:53;;;;;;;1.73;1.30;;;21.10;41.50;;;;;;5005855;28;20468;-49
2021/05/13 12:38:24;;;;;;;3.50;1.13;;;21.20;41.70;;;;;;5002975;28;20468;-49
2021/05/13 12:41:15;;;;;;;2.40;0.70;;;21.30;42.10;;;;;;4998953;28;20473;-49
2021/05/13 12:43:48;;;;;;;5.03;0.80;;;21.40;40.50;;;;;;5001867;28;20467;-49
2021/05/13 12:46:25;;;;;;;3.73;1.00;;;21.50;38.40;;;;;;5009447;28;21074;-49
2021/05/13 12:48:53;;;;;;;2.53;1.07;;;21.50;41.10;;;;;;5006269;28;20464;-49
2021/05/13 12:51:25;;;;;;;7.33;1.93;;;21.60;41.50;;;;;;5009643;28;20442;-48
2021/05/13 12:53:57;;;;;;;3.40;0.73;;;21.70;41.40;;;;;;5002806;28;20524;-48